Time,TemperatureF,DewpointF,PressureIn,WindDirection,WindDirectionDegrees,WindSpeedMPH,WindSpeedGustMPH,Humidity,HourlyPrecipIn,Conditions,Clouds,dailyrainin,SoftwareType,DateUTC
2013-03-06 00:15:00,38.0,25.3,29.81,East,90,3.0,11.0,60,0.00,,,-99.99,WeatherLink 5.4,2013-03-06 05:15:00,
2013-03-06 00:20:00,38.0,25.3,29.81,East,90,3.0,11.0,60,0.00,,,-99.99,WeatherLink 5.4,2013-03-06 05:20:00,
2013-03-06 00:30:00,37.9,26.4,29.80,East,90,2.0,8.0,63,0.00,,,-99.99,WeatherLink 5.4,2013-03-06 05:30:00,
2013-03-06 00:45:00,37.2,29.0,29.79,East,90,4.0,14.0,72,0.00,,,-99.99,WeatherLink 5.4,2013-03-06 05:45:00,
2013-03-06 01:00:00,35.8,30.2,29.79,ENE,67,5.0,13.0,80,0.00,,,-99.99,WeatherLink 5.4,2013-03-06 06:00:00,
2013-03-06 01:05:00,35.8,30.2,29.79,ENE,67,5.0,13.0,80,0.00,,,-99.99,WeatherLink 5.4,2013-03-06 06:05:00,
2013-03-06 01:15:00,34.7,30.4,29.78,ENE,67,4.0,9.0,84,0.00,,,-99.99,WeatherLink 5.4,2013-03-06 06:15:00,
2013-03-06 01:20:00,34.7,30.4,29.78,ENE,67,4.0,9.0,84,0.00,,,-99.99,WeatherLink 5.4,2013-03-06 06:20:00,
2013-03-06 01:30:00,34.0,30.3,29.78,East,90,5.0,14.0,86,0.00,,,-99.99,WeatherLink 5.4,2013-03-06 06:30:00,
2013-03-06 01:45:00,33.5,30.3,29.77,ENE,67,5.0,18.0,88,0.01,,,-99.99,WeatherLink 5.4,2013-03-06 06:45:00,
2013-03-06 02:00:00,33.1,30.5,29.76,ENE,67,5.0,12.0,90,0.02,,,-99.99,WeatherLink 5.4,2013-03-06 07:00:00,
2013-03-06 02:05:00,33.1,30.5,29.76,ENE,67,5.0,12.0,90,0.02,,,-99.99,WeatherLink 5.4,2013-03-06 07:05:00,
2013-03-06 02:15:00,32.8,30.5,29.75,ENE,67,5.0,11.0,91,0.04,,,-99.99,WeatherLink 5.4,2013-03-06 07:15:00,
2013-03-06 02:30:00,32.7,30.4,29.74,ENE,67,5.0,13.0,91,0.04,,,-99.99,WeatherLink 5.4,2013-03-06 07:30:00,
2013-03-06 02:45:00,32.5,30.4,29.73,ENE,67,6.0,12.0,92,0.05,,,-99.99,WeatherLink 5.4,2013-03-06 07:45:00,
2013-03-06 03:00:00,32.4,30.3,29.73,ENE,67,8.0,17.0,92,0.07,,,-99.99,WeatherLink 5.4,2013-03-06 08:00:00,
2013-03-06 03:15:00,32.2,30.4,29.73,NE,45,8.0,16.0,93,0.08,,,-99.99,WeatherLink 5.4,2013-03-06 08:15:00,
2013-03-06 03:20:00,32.2,30.4,29.73,NE,45,8.0,16.0,93,0.08,,,-99.99,WeatherLink 5.4,2013-03-06 08:20:00,
2013-03-06 03:30:00,32.2,30.4,29.74,NE,45,7.0,13.0,93,0.11,,,-99.99,WeatherLink 5.4,2013-03-06 08:30:00,
2013-03-06 03:45:00,32.1,30.6,29.74,NE,45,3.0,8.0,94,0.12,,,-99.99,WeatherLink 5.4,2013-03-06 08:45:00,
2013-03-06 04:00:00,32.1,30.6,29.74,NE,45,3.0,8.0,94,0.12,,,-99.99,WeatherLink 5.4,2013-03-06 09:00:00,
2013-03-06 04:05:00,32.1,30.6,29.74,NE,45,3.0,8.0,94,0.12,,,-99.99,WeatherLink 5.4,2013-03-06 09:05:00,
2013-03-06 04:15:00,32.1,30.6,29.73,NE,45,4.0,12.0,94,0.11,,,-99.99,WeatherLink 5.4,2013-03-06 09:15:00,
2013-03-06 04:30:00,32.1,30.6,29.72,NE,45,4.0,9.0,94,0.11,,,-99.99,WeatherLink 5.4,2013-03-06 09:30:00,
2013-03-06 04:35:00,32.1,30.6,29.72,NE,45,4.0,9.0,94,0.11,,,-99.99,WeatherLink 5.4,2013-03-06 09:35:00,
2013-03-06 04:45:00,32.2,30.7,29.72,NE,45,5.0,10.0,94,0.09,,,-99.99,WeatherLink 5.4,2013-03-06 09:45:00,
2013-03-06 05:00:00,32.2,30.7,29.71,NE,45,4.0,11.0,94,0.08,,,-99.99,WeatherLink 5.4,2013-03-06 10:00:00,
2013-03-06 05:05:00,32.2,30.7,29.71,NE,45,4.0,11.0,94,0.08,,,-99.99,WeatherLink 5.4,2013-03-06 10:05:00,
2013-03-06 05:15:00,32.1,30.6,29.72,NNE,22,2.0,8.0,94,0.08,,,-99.99,WeatherLink 5.4,2013-03-06 10:15:00,
2013-03-06 05:20:00,32.1,30.6,29.72,NNE,22,2.0,8.0,94,0.08,,,-99.99,WeatherLink 5.4,2013-03-06 10:20:00,
2013-03-06 05:30:00,32.2,30.7,29.73,NE,45,4.0,8.0,94,0.05,,,-99.99,WeatherLink 5.4,2013-03-06 10:30:00,
2013-03-06 05:35:00,32.2,30.7,29.73,NE,45,4.0,8.0,94,0.05,,,-99.99,WeatherLink 5.4,2013-03-06 10:35:00,
2013-03-06 05:45:00,32.4,30.9,29.73,NE,45,4.0,10.0,94,0.05,,,-99.99,WeatherLink 5.4,2013-03-06 10:45:00,
2013-03-06 05:50:00,32.4,30.9,29.73,NE,45,4.0,10.0,94,0.05,,,-99.99,WeatherLink 5.4,2013-03-06 10:50:00,
2013-03-06 06:00:00,32.5,31.0,29.73,NE,45,4.0,11.0,94,0.04,,,-99.99,WeatherLink 5.4,2013-03-06 11:00:00,
2013-03-06 06:15:00,32.5,31.0,29.74,NE,45,3.0,11.0,94,0.02,,,-99.99,WeatherLink 5.4,2013-03-06 11:15:00,
2013-03-06 06:20:00,32.5,31.0,29.74,NE,45,3.0,11.0,94,0.02,,,-99.99,WeatherLink 5.4,2013-03-06 11:20:00,
2013-03-06 06:30:00,32.7,31.2,29.73,NNE,22,4.0,11.0,94,0.02,,,-99.99,WeatherLink 5.4,2013-03-06 11:30:00,
2013-03-06 06:45:00,32.5,31.0,29.73,NNE,22,4.0,11.0,94,0.01,,,-99.99,WeatherLink 5.4,2013-03-06 11:45:00,
2013-03-06 06:50:00,32.5,31.0,29.73,NNE,22,4.0,11.0,94,0.01,,,-99.99,WeatherLink 5.4,2013-03-06 11:50:00,
2013-03-06 07:00:00,32.7,31.2,29.73,NE,45,4.0,16.0,94,0.01,,,-99.99,WeatherLink 5.4,2013-03-06 12:00:00,
2013-03-06 07:05:00,32.7,31.2,29.73,NE,45,4.0,16.0,94,0.01,,,-99.99,WeatherLink 5.4,2013-03-06 12:05:00,
2013-03-06 07:15:00,32.8,31.3,29.73,NNE,22,7.0,14.0,94,0.02,,,-99.99,WeatherLink 5.4,2013-03-06 12:15:00,
2013-03-06 07:30:00,32.8,31.3,29.74,NNE,22,5.0,11.0,94,0.03,,,-99.99,WeatherLink 5.4,2013-03-06 12:30:00,
2013-03-06 07:45:00,32.9,31.4,29.74,NNE,22,6.0,14.0,94,0.04,,,-99.99,WeatherLink 5.4,2013-03-06 12:45:00,
2013-03-06 08:00:00,32.9,31.4,29.75,NNE,22,6.0,13.0,94,0.04,,,-99.99,WeatherLink 5.4,2013-03-06 13:00:00,
2013-03-06 08:15:00,32.8,31.3,29.75,North,0,5.0,13.0,94,0.05,,,-99.99,WeatherLink 5.4,2013-03-06 13:15:00,
2013-03-06 08:30:00,32.8,31.3,29.75,North,0,4.0,11.0,94,0.05,,,-99.99,WeatherLink 5.4,2013-03-06 13:30:00,
2013-03-06 08:45:00,32.8,31.3,29.75,North,0,5.0,11.0,94,0.05,,,-99.99,WeatherLink 5.4,2013-03-06 13:45:00,
2013-03-06 08:50:00,32.8,31.3,29.75,North,0,5.0,11.0,94,0.05,,,-99.99,WeatherLink 5.4,2013-03-06 13:50:00,
2013-03-06 09:00:00,32.9,31.4,29.75,North,0,6.0,13.0,94,0.04,,,-99.99,WeatherLink 5.4,2013-03-06 14:00:00,
2013-03-06 09:05:00,32.9,31.4,29.75,North,0,6.0,13.0,94,0.04,,,-99.99,WeatherLink 5.4,2013-03-06 14:05:00,
2013-03-06 09:15:00,33.2,31.7,29.76,North,0,6.0,11.0,94,0.03,,,-99.99,WeatherLink 5.4,2013-03-06 14:15:00,
2013-03-06 09:30:00,33.7,32.2,29.76,NNE,22,6.0,16.0,94,0.02,,,-99.99,WeatherLink 5.4,2013-03-06 14:30:00,
2013-03-06 09:35:00,33.7,32.2,29.76,NNE,22,6.0,16.0,94,0.02,,,-99.99,WeatherLink 5.4,2013-03-06 14:35:00,
2013-03-06 09:45:00,34.1,32.0,29.76,NNE,22,8.0,16.0,92,0.01,,,-99.99,WeatherLink 5.4,2013-03-06 14:45:00,
2013-03-06 09:50:00,34.1,32.0,29.76,NNE,22,8.0,16.0,92,0.01,,,-99.99,WeatherLink 5.4,2013-03-06 14:50:00,
2013-03-06 10:00:00,34.1,31.7,29.77,NNE,22,8.0,18.0,91,0.01,,,-99.99,WeatherLink 5.4,2013-03-06 15:00:00,
2013-03-06 10:05:00,34.1,31.7,29.77,NNE,22,8.0,18.0,91,0.01,,,-99.99,WeatherLink 5.4,2013-03-06 15:05:00,
2013-03-06 10:15:00,34.4,32.0,29.77,North,0,8.0,17.0,91,0.00,,,-99.99,WeatherLink 5.4,2013-03-06 15:15:00,
2013-03-06 10:20:00,34.4,32.0,29.77,North,0,8.0,17.0,91,0.00,,,-99.99,WeatherLink 5.4,2013-03-06 15:20:00,
2013-03-06 10:30:00,34.6,32.2,29.77,North,0,8.0,21.0,91,0.00,,,-99.99,WeatherLink 5.4,2013-03-06 15:30:00,
2013-03-06 10:45:00,34.6,32.2,29.78,North,0,10.0,20.0,91,0.01,,,-99.99,WeatherLink 5.4,2013-03-06 15:45:00,
2013-03-06 10:50:00,34.6,32.2,29.78,North,0,10.0,20.0,91,0.01,,,-99.99,WeatherLink 5.4,2013-03-06 15:50:00,
2013-03-06 11:00:00,34.7,32.1,29.78,North,0,10.0,20.0,90,0.01,,,-99.99,WeatherLink 5.4,2013-03-06 16:00:00,
2013-03-06 11:15:00,34.9,32.0,29.79,North,0,10.0,20.0,89,0.01,,,-99.99,WeatherLink 5.4,2013-03-06 16:15:00,
2013-03-06 11:20:00,34.9,32.0,29.79,North,0,10.0,20.0,89,0.01,,,-99.99,WeatherLink 5.4,2013-03-06 16:20:00,
2013-03-06 11:30:00,34.7,32.1,29.80,North,0,10.0,19.0,90,0.01,,,-99.99,WeatherLink 5.4,2013-03-06 16:30:00,
2013-03-06 11:35:00,34.7,32.1,29.80,North,0,10.0,19.0,90,0.01,,,-99.99,WeatherLink 5.4,2013-03-06 16:35:00,
2013-03-06 11:45:00,34.6,32.2,29.80,North,0,11.0,22.0,91,0.00,,,-99.99,WeatherLink 5.4,2013-03-06 16:45:00,
2013-03-06 12:00:00,34.9,32.5,29.81,North,0,9.0,22.0,91,0.00,,,-99.99,WeatherLink 5.4,2013-03-06 17:00:00,
2013-03-06 12:15:00,35.3,32.7,29.81,North,0,11.0,21.0,90,0.00,,,-99.99,WeatherLink 5.4,2013-03-06 17:15:00,
2013-03-06 12:30:00,35.6,32.7,29.82,North,0,10.0,22.0,89,0.00,,,-99.99,WeatherLink 5.4,2013-03-06 17:30:00,
2013-03-06 12:45:00,35.6,32.4,29.83,North,0,12.0,21.0,88,0.00,,,-99.99,WeatherLink 5.4,2013-03-06 17:45:00,
2013-03-06 12:50:00,35.6,32.4,29.83,North,0,12.0,21.0,88,0.00,,,-99.99,WeatherLink 5.4,2013-03-06 17:50:00,
2013-03-06 13:00:00,35.8,32.6,29.83,North,0,11.0,20.0,88,0.00,,,-99.99,WeatherLink 5.4,2013-03-06 18:00:00,
2013-03-06 13:05:00,35.8,32.6,29.83,North,0,11.0,20.0,88,0.00,,,-99.99,WeatherLink 5.4,2013-03-06 18:05:00,
2013-03-06 13:15:00,36.0,32.8,29.84,North,0,12.0,24.0,88,0.00,,,-99.99,WeatherLink 5.4,2013-03-06 18:15:00,
2013-03-06 13:20:00,36.0,32.8,29.84,North,0,12.0,24.0,88,0.00,,,-99.99,WeatherLink 5.4,2013-03-06 18:20:00,
2013-03-06 13:30:00,36.5,32.7,29.84,North,0,12.0,22.0,86,0.00,,,-99.99,WeatherLink 5.4,2013-03-06 18:30:00,
2013-03-06 13:35:00,36.5,32.7,29.84,North,0,12.0,22.0,86,0.00,,,-99.99,WeatherLink 5.4,2013-03-06 18:35:00,
2013-03-06 13:45:00,36.5,32.4,29.85,North,0,12.0,25.0,85,0.00,,,-99.99,WeatherLink 5.4,2013-03-06 18:45:00,
2013-03-06 13:50:00,36.5,32.4,29.85,North,0,12.0,25.0,85,0.00,,,-99.99,WeatherLink 5.4,2013-03-06 18:50:00,
2013-03-06 14:00:00,36.8,32.4,29.85,North,0,11.0,24.0,84,0.00,,,-99.99,WeatherLink 5.4,2013-03-06 19:00:00,
2013-03-06 14:15:00,37.0,32.3,29.86,North,0,11.0,21.0,83,0.00,,,-99.99,WeatherLink 5.4,2013-03-06 19:15:00,
2013-03-06 14:30:00,37.2,32.2,29.86,North,0,10.0,22.0,82,0.00,,,-99.99,WeatherLink 5.4,2013-03-06 19:30:00,
2013-03-06 14:45:00,37.2,31.6,29.87,North,0,11.0,21.0,80,0.00,,,-99.99,WeatherLink 5.4,2013-03-06 19:45:00,
2013-03-06 14:50:00,37.2,31.6,29.87,North,0,11.0,21.0,80,0.00,,,-99.99,WeatherLink 5.4,2013-03-06 19:50:00,
2013-03-06 15:00:00,37.2,31.6,29.88,North,0,8.0,20.0,80,0.00,,,-99.99,WeatherLink 5.4,2013-03-06 20:00:00,
2013-03-06 15:05:00,37.2,31.6,29.88,North,0,8.0,20.0,80,0.00,,,-99.99,WeatherLink 5.4,2013-03-06 20:05:00,
2013-03-06 15:15:00,37.3,31.4,29.89,North,0,8.0,16.0,79,0.00,,,-99.99,WeatherLink 5.4,2013-03-06 20:15:00,
2013-03-06 15:20:00,37.3,31.4,29.89,North,0,8.0,16.0,79,0.00,,,-99.99,WeatherLink 5.4,2013-03-06 20:20:00,
2013-03-06 15:30:00,37.8,31.6,29.90,North,0,8.0,20.0,78,0.00,,,-99.99,WeatherLink 5.4,2013-03-06 20:30:00,
2013-03-06 15:35:00,37.8,31.6,29.90,North,0,8.0,20.0,78,0.00,,,-99.99,WeatherLink 5.4,2013-03-06 20:35:00,
2013-03-06 15:45:00,37.9,31.7,29.91,North,0,8.0,17.0,78,0.00,,,-99.99,WeatherLink 5.4,2013-03-06 20:45:00,
2013-03-06 15:50:00,37.9,31.7,29.91,North,0,8.0,17.0,78,0.00,,,-99.99,WeatherLink 5.4,2013-03-06 20:50:00,
2013-03-06 16:00:00,38.2,31.6,29.91,North,0,5.0,14.0,77,0.00,,,-99.99,WeatherLink 5.4,2013-03-06 21:00:00,
2013-03-06 16:05:00,38.2,31.6,29.91,North,0,5.0,14.0,77,0.00,,,-99.99,WeatherLink 5.4,2013-03-06 21:05:00,
2013-03-06 16:15:00,38.3,31.7,29.92,North,0,4.0,9.0,77,0.00,,,-99.99,WeatherLink 5.4,2013-03-06 21:15:00,
2013-03-06 16:20:00,38.3,31.7,29.92,North,0,4.0,9.0,77,0.00,,,-99.99,WeatherLink 5.4,2013-03-06 21:20:00,
2013-03-06 16:30:00,38.8,31.6,29.92,North,0,4.0,8.0,75,0.00,,,-99.99,WeatherLink 5.4,2013-03-06 21:30:00,
2013-03-06 16:45:00,39.1,31.2,29.93,North,0,4.0,11.0,73,0.00,,,-99.99,WeatherLink 5.4,2013-03-06 21:45:00,
2013-03-06 17:00:00,39.5,30.5,29.94,North,0,4.0,10.0,70,0.00,,,-99.99,WeatherLink 5.4,2013-03-06 22:00:00,
2013-03-06 17:05:00,39.5,30.5,29.94,North,0,4.0,10.0,70,0.00,,,-99.99,WeatherLink 5.4,2013-03-06 22:05:00,
2013-03-06 17:15:00,39.9,30.2,29.94,North,0,5.0,11.0,68,0.00,,,-99.99,WeatherLink 5.4,2013-03-06 22:15:00,
2013-03-06 17:30:00,40.3,29.8,29.95,North,0,6.0,13.0,66,0.00,,,-99.99,WeatherLink 5.4,2013-03-06 22:30:00,
2013-03-06 17:35:00,40.3,29.8,29.95,North,0,6.0,13.0,66,0.00,,,-99.99,WeatherLink 5.4,2013-03-06 22:35:00,
2013-03-06 17:45:00,40.6,29.4,29.95,NNW,337,7.0,13.0,64,0.00,,,-99.99,WeatherLink 5.4,2013-03-06 22:45:00,
2013-03-06 18:00:00,40.1,29.6,29.97,NNW,337,6.0,12.0,66,0.00,,,-99.99,WeatherLink 5.4,2013-03-06 23:00:00,
2013-03-06 18:05:00,40.1,29.6,29.97,NNW,337,6.0,12.0,66,0.00,,,-99.99,WeatherLink 5.4,2013-03-06 23:05:00,
2013-03-06 18:15:00,39.5,29.4,29.97,NNW,337,7.0,13.0,67,0.00,,,-99.99,WeatherLink 5.4,2013-03-06 23:15:00,
2013-03-06 18:30:00,39.2,29.2,29.98,North,0,7.0,12.0,67,0.00,,,-99.99,WeatherLink 5.4,2013-03-06 23:30:00,
2013-03-06 18:45:00,38.9,28.9,29.99,North,0,6.0,11.0,67,0.00,,,-99.99,WeatherLink 5.4,2013-03-06 23:45:00,
2013-03-06 19:00:00,38.9,28.9,30.00,NNW,337,6.0,10.0,67,0.00,,,-99.99,WeatherLink 5.4,2013-03-07 00:00:00,
2013-03-06 19:05:00,38.9,28.9,30.00,NNW,337,6.0,10.0,67,0.00,,,-99.99,WeatherLink 5.4,2013-03-07 00:05:00,
2013-03-06 19:15:00,38.8,28.8,30.00,North,0,6.0,11.0,67,0.00,,,-99.99,WeatherLink 5.4,2013-03-07 00:15:00,
2013-03-06 19:30:00,38.8,28.8,30.00,NNW,337,5.0,11.0,67,0.00,,,-99.99,WeatherLink 5.4,2013-03-07 00:30:00,
2013-03-06 19:45:00,38.8,28.8,30.01,NNW,337,5.0,10.0,67,0.00,,,-99.99,WeatherLink 5.4,2013-03-07 00:45:00,
2013-03-06 19:50:00,38.8,28.8,30.01,NNW,337,5.0,10.0,67,0.00,,,-99.99,WeatherLink 5.4,2013-03-07 00:50:00,
2013-03-06 20:00:00,38.6,28.6,30.01,NNW,337,4.0,8.0,67,0.00,,,-99.99,WeatherLink 5.4,2013-03-07 01:00:00,
2013-03-06 20:05:00,38.6,28.6,30.01,NNW,337,4.0,8.0,67,0.00,,,-99.99,WeatherLink 5.4,2013-03-07 01:05:00,
2013-03-06 20:15:00,38.5,28.9,30.01,NNW,337,3.0,7.0,68,0.00,,,-99.99,WeatherLink 5.4,2013-03-07 01:15:00,
2013-03-06 20:30:00,38.3,28.7,30.02,North,0,3.0,7.0,68,0.00,,,-99.99,WeatherLink 5.4,2013-03-07 01:30:00,
2013-03-06 20:45:00,38.2,28.6,30.02,North,0,3.0,7.0,68,0.00,,,-99.99,WeatherLink 5.4,2013-03-07 01:45:00,
2013-03-06 21:00:00,38.2,28.9,30.02,North,0,3.0,7.0,69,0.00,,,-99.99,WeatherLink 5.4,2013-03-07 02:00:00,
2013-03-06 21:15:00,38.0,28.7,30.02,North,0,4.0,8.0,69,0.00,,,-99.99,WeatherLink 5.4,2013-03-07 02:15:00,
2013-03-06 21:20:00,38.0,28.7,30.02,North,0,4.0,8.0,69,0.00,,,-99.99,WeatherLink 5.4,2013-03-07 02:20:00,
2013-03-06 21:30:00,38.2,28.6,30.02,NNW,337,5.0,11.0,68,0.00,,,-99.99,WeatherLink 5.4,2013-03-07 02:30:00,
2013-03-06 21:45:00,38.2,28.6,30.03,NNW,337,5.0,8.0,68,0.00,,,-99.99,WeatherLink 5.4,2013-03-07 02:45:00,
2013-03-06 22:00:00,38.3,28.3,30.03,NNW,337,5.0,8.0,67,0.00,,,-99.99,WeatherLink 5.4,2013-03-07 03:00:00,
2013-03-06 22:15:00,38.3,28.3,30.03,NNW,337,6.0,11.0,67,0.00,,,-99.99,WeatherLink 5.4,2013-03-07 03:15:00,
2013-03-06 22:30:00,38.3,28.3,30.04,NNW,337,6.0,10.0,67,0.00,,,-99.99,WeatherLink 5.4,2013-03-07 03:30:00,
2013-03-06 22:45:00,38.2,28.6,30.03,NNW,337,6.0,12.0,68,0.00,,,-99.99,WeatherLink 5.4,2013-03-07 03:45:00,
2013-03-06 22:50:00,38.2,28.6,30.03,NNW,337,6.0,12.0,68,0.00,,,-99.99,WeatherLink 5.4,2013-03-07 03:50:00,
2013-03-06 23:00:00,37.8,28.5,30.04,NNW,337,5.0,12.0,69,0.00,,,-99.99,WeatherLink 5.4,2013-03-07 04:00:00,
2013-03-06 23:15:00,37.5,28.2,30.04,NNW,337,3.0,9.0,69,0.00,,,-99.99,WeatherLink 5.4,2013-03-07 04:15:00,
2013-03-06 23:30:00,37.2,28.3,30.05,North,0,2.0,6.0,70,0.00,,,-99.99,WeatherLink 5.4,2013-03-07 04:30:00,
2013-03-06 23:35:00,37.2,28.3,30.05,North,0,2.0,6.0,70,0.00,,,-99.99,WeatherLink 5.4,2013-03-07 04:35:00,
2013-03-06 23:45:00,36.9,28.0,30.05,North,0,2.0,7.0,70,0.00,,,-99.99,WeatherLink 5.4,2013-03-07 04:45:00,
2013-03-06 23:50:00,36.9,28.0,30.05,North,0,2.0,7.0,70,0.00,,,-99.99,WeatherLink 5.4,2013-03-07 04:50:00,